Time;durP1;ratioP1;P1;durP2;ratioP2;P2;SDS_P1;SDS_P2;PMS_P1;PMS_P2;Temp;Humidity;BMP_temperature;BMP_pressure;BME280_temperature;BME280_humidity;BME280_pressure;Samples;Min_cycle;Max_cycle;Signal;HPM_P1;HPM_P2
2023/01/03 00:01:33;;;;;;;14.33;9.13;;;;;;;;;;4967749;28;20242;-79
2023/01/03 00:03:59;;;;;;;11.70;8.20;;;;;;;;;;4973568;28;20176;-79
2023/01/03 00:06:25;;;;;;;15.70;9.50;;;;;;;;;;4983851;28;20585;-80
2023/01/03 00:08:51;;;;;;;13.37;8.33;;;;;;;;;;4979372;28;20180;-80
2023/01/03 00:11:19;;;;;;;18.10;9.53;;;;;;;;;;4980571;28;20256;-79
2023/01/03 00:13:44;;;;;;;17.13;9.07;;;;;;;;;;4977653;28;20286;-80
2023/01/03 00:16:18;;;;;;;12.53;9.10;;;;;;;;;;4973059;28;20164;-79
2023/01/03 00:18:44;;;;;;;18.07;10.53;;;;;;;;;;4983032;28;20168;-80
2023/01/03 00:21:09;;;;;;;15.33;10.03;;;;;;;;;;4974427;28;20272;-80
2023/01/03 00:23:35;;;;;;;19.07;10.17;;;;;;;;;;4976594;28;20187;-79
2023/01/03 00:26:07;;;;;;;17.03;9.77;;;;;;;;;;4970003;28;20187;-79
2023/01/03 00:28:32;;;;;;;17.07;9.67;;;;;;;;;;4984083;28;20187;-79
2023/01/03 00:30:57;;;;;;;17.97;9.60;;;;;;;;;;4975384;28;20259;-79
2023/01/03 00:33:23;;;;;;;19.57;10.53;;;;;;;;;;4975749;28;20694;-78
2023/01/03 00:35:48;;;;;;;16.77;9.30;;;;;;;;;;4979366;28;20179;-78
2023/01/03 00:38:13;;;;;;;15.10;10.13;;;;;;;;;;4970164;28;20215;-78
2023/01/03 00:40:38;;;;;;;15.77;9.23;;;;;;;;;;4971916;28;20243;-78
2023/01/03 00:43:49;;;;;;;17.73;10.10;;;;;;;;;;4968301;28;20191;-78
2023/01/03 00:45:49;;;;;;;16.20;9.33;;;;;;;;;;4964435;28;20192;-78
2023/01/03 00:48:14;;;;;;;14.20;9.30;;;;;;;;;;4968640;28;20203;-78
2023/01/03 00:50:39;;;;;;;15.60;9.70;;;;;;;;;;4988219;28;20264;-78
2023/01/03 00:53:04;;;;;;;13.93;8.97;;;;;;;;;;4979865;28;20211;-78
2023/01/03 00:55:32;;;;;;;12.33;8.30;;;;;;;;;;4968876;28;20289;-79
2023/01/03 00:57:58;;;;;;;13.63;8.73;;;;;;;;;;4989872;28;20298;-79
2023/01/03 01:00:23;;;;;;;17.03;9.27;;;;;;;;;;4980924;28;20219;-79
2023/01/03 01:02:51;;;;;;;14.33;8.83;;;;;;;;;;4978129;28;20183;-79
2023/01/03 01:05:16;;;;;;;18.27;9.93;;;;;;;;;;4981066;28;20184;-78
2023/01/03 01:07:41;;;;;;;18.70;8.97;;;;;;;;;;4983088;28;20195;-79
2023/01/03 01:10:07;;;;;;;18.17;10.07;;;;;;;;;;4985175;28;20250;-79
2023/01/03 01:12:32;;;;;;;16.50;9.73;;;;;;;;;;4978626;28;20211;-80
2023/01/03 01:14:57;;;;;;;14.10;9.30;;;;;;;;;;4962494;28;20188;-78
2023/01/03 01:17:22;;;;;;;19.03;10.80;;;;;;;;;;4968929;28;20204;-77
2023/01/03 01:19:48;;;;;;;20.10;11.20;;;;;;;;;;4970246;28;20529;-80
2023/01/03 01:22:13;;;;;;;20.47;11.27;;;;;;;;;;4979458;28;20599;-78
2023/01/03 01:24:38;;;;;;;19.70;10.50;;;;;;;;;;4978554;28;20268;-78
2023/01/03 01:27:04;;;;;;;25.97;11.83;;;;;;;;;;4976474;28;20215;-78
2023/01/03 01:29:29;;;;;;;20.93;11.03;;;;;;;;;;4968946;28;20184;-78
2023/01/03 01:31:55;;;;;;;21.53;11.97;;;;;;;;;;4970433;28;20246;-78
2023/01/03 01:34:20;;;;;;;21.47;12.30;;;;;;;;;;4970720;28;20176;-78
2023/01/03 01:36:46;;;;;;;20.13;10.80;;;;;;;;;;4973187;28;20243;-78
2023/01/03 01:39:14;;;;;;;19.53;11.07;;;;;;;;;;4978508;28;20176;-78
2023/01/03 01:44:42;;;;;;;20.50;11.73;;;;;;;;;;4980594;28;20387;-79
2023/01/03 01:47:19;;;;;;;22.53;11.57;;;;;;;;;;4978449;28;20271;-78
2023/01/03 01:49:45;;;;;;;22.90;11.47;;;;;;;;;;4969211;28;20183;-79
2023/01/03 01:52:12;;;;;;;17.90;11.17;;;;;;;;;;4973451;28;20204;-78
2023/01/03 01:54:39;;;;;;;19.87;11.47;;;;;;;;;;4982308;28;20196;-78
2023/01/03 01:57:04;;;;;;;23.57;10.53;;;;;;;;;;4975459;28;20629;-79
2023/01/03 01:59:30;;;;;;;21.40;11.43;;;;;;;;;;4978290;28;20246;-78
2023/01/03 02:01:55;;;;;;;21.90;11.80;;;;;;;;;;4983375;28;20176;-78
2023/01/03 02:04:25;;;;;;;19.83;11.30;;;;;;;;;;4973476;28;20203;-78
2023/01/03 02:06:51;;;;;;;67.27;15.20;;;;;;;;;;4975524;28;20693;-78
2023/01/03 02:09:16;;;;;;;42.37;13.40;;;;;;;;;;4969407;28;20188;-78
2023/01/03 02:13:04;;;;;;;20.20;10.17;;;;;;;;;;4981008;28;20172;-78
2023/01/03 02:14:51;;;;;;;16.47;9.83;;;;;;;;;;4981452;28;20187;-78
2023/01/03 02:17:25;;;;;;;47.33;13.10;;;;;;;;;;4977891;28;20188;-78
2023/01/03 02:19:50;;;;;;;26.63;10.77;;;;;;;;;;4965042;28;20661;-78
2023/01/03 02:22:25;;;;;;;117.27;24.40;;;;;;;;;;4971705;28;20207;-78
2023/01/03 02:24:53;;;;;;;14.53;9.07;;;;;;;;;;4980575;28;20179;-78
2023/01/03 02:27:37;;;;;;;56.47;16.10;;;;;;;;;;4976079;28;20201;-79
2023/01/03 02:30:21;;;;;;;115.80;24.00;;;;;;;;;;4967608;28;20256;-79
2023/01/03 02:32:49;;;;;;;62.23;16.43;;;;;;;;;;4968616;28;20705;-79
2023/01/03 02:35:14;;;;;;;52.03;14.53;;;;;;;;;;4976332;28;20219;-79
2023/01/03 02:37:48;;;;;;;37.43;13.63;;;;;;;;;;4978746;28;20617;-79
2023/01/03 02:40:21;;;;;;;137.00;24.20;;;;;;;;;;4972685;28;20541;-79
2023/01/03 02:43:04;;;;;;;74.80;18.77;;;;;;;;;;4988713;28;20184;-79
2023/01/03 02:45:48;;;;;;;23.80;13.30;;;;;;;;;;4975227;28;20506;-78
2023/01/03 02:48:17;;;;;;;130.00;20.90;;;;;;;;;;4981530;28;20223;-78
2023/01/03 02:50:47;;;;;;;103.10;18.77;;;;;;;;;;4980282;28;20577;-78
2023/01/03 02:53:15;;;;;;;63.57;16.10;;;;;;;;;;4980437;28;20204;-79
2023/01/03 02:55:40;;;;;;;41.43;11.47;;;;;;;;;;4990585;28;20203;-78
2023/01/03 02:58:08;;;;;;;33.40;10.33;;;;;;;;;;4985573;28;20230;-79
2023/01/03 03:00:37;;;;;;;41.00;10.70;;;;;;;;;;4982263;28;20177;-78
2023/01/03 03:03:09;;;;;;;37.17;10.60;;;;;;;;;;4975833;28;20247;-79
2023/01/03 03:05:55;;;;;;;26.27;10.73;;;;;;;;;;4986719;28;20769;-78
2023/01/03 03:08:20;;;;;;;20.50;10.20;;;;;;;;;;4962159;28;20199;-79
2023/01/03 03:13:29;;;;;;;42.50;12.70;;;;;;;;;;4986910;28;20276;-79
2023/01/03 03:16:13;;;;;;;17.60;10.30;;;;;;;;;;4974131;28;20185;-79
2023/01/03 03:18:49;;;;;;;35.73;12.77;;;;;;;;;;4977269;28;21718;-79
2023/01/03 03:26:51;;;;;;;19.43;12.57;;;;;;;;;;4965287;28;20218;-80
2023/01/03 03:29:17;;;;;;;57.23;14.23;;;;;;;;;;4972705;28;20180;-80
2023/01/03 03:31:44;;;;;;;32.00;14.07;;;;;;;;;;4978533;28;20241;-79
2023/01/03 03:34:15;;;;;;;15.97;11.60;;;;;;;;;;4983508;28;20184;-79
2023/01/03 03:36:46;;;;;;;25.13;12.93;;;;;;;;;;4969510;28;20238;-79
2023/01/03 03:45:02;;;;;;;58.53;16.77;;;;;;;;;;4964246;28;20182;-79
2023/01/03 03:47:44;;;;;;;55.17;16.63;;;;;;;;;;4976715;28;20239;-79
2023/01/03 03:50:28;;;;;;;21.73;12.50;;;;;;;;;;4979594;28;20191;-78
2023/01/03 03:52:56;;;;;;;17.70;11.70;;;;;;;;;;4974892;28;20287;-78
2023/01/03 03:55:24;;;;;;;40.47;15.53;;;;;;;;;;4972494;28;20192;-78
2023/01/03 03:57:52;;;;;;;18.30;12.73;;;;;;;;;;4974283;28;20247;-79
2023/01/03 04:00:20;;;;;;;35.33;15.73;;;;;;;;;;4983459;28;20188;-79
2023/01/03 04:02:46;;;;;;;27.20;14.10;;;;;;;;;;4984699;28;20620;-78
2023/01/03 04:05:13;;;;;;;30.87;14.13;;;;;;;;;;4983020;28;20186;-78
2023/01/03 04:07:39;;;;;;;23.67;14.60;;;;;;;;;;4978622;28;20204;-79
2023/01/03 04:10:04;;;;;;;26.40;16.97;;;;;;;;;;4981868;28;20208;-78
2023/01/03 04:12:30;;;;;;;26.90;15.20;;;;;;;;;;4982456;28;20581;-79
2023/01/03 04:14:55;;;;;;;25.80;16.47;;;;;;;;;;4972197;28;20177;-79
2023/01/03 04:17:20;;;;;;;26.47;16.47;;;;;;;;;;4972099;28;20196;-80
2023/01/03 04:19:45;;;;;;;28.93;16.87;;;;;;;;;;4970096;28;20189;-78
2023/01/03 04:22:10;;;;;;;26.63;18.17;;;;;;;;;;4971541;28;20194;-78
2023/01/03 04:24:36;;;;;;;29.87;18.87;;;;;;;;;;4975081;28;20231;-79
2023/01/03 04:27:01;;;;;;;30.97;19.87;;;;;;;;;;4972736;28;20636;-78
2023/01/03 04:29:26;;;;;;;28.80;17.67;;;;;;;;;;4969988;28;20187;-78
2023/01/03 04:31:51;;;;;;;30.77;19.53;;;;;;;;;;4971818;28;20192;-78
2023/01/03 04:34:16;;;;;;;24.73;17.60;;;;;;;;;;4973664;28;20172;-79
2023/01/03 04:36:42;;;;;;;33.83;19.77;;;;;;;;;;4978243;28;20207;-79
2023/01/03 04:39:07;;;;;;;32.60;19.57;;;;;;;;;;4982861;28;20211;-79
2023/01/03 04:41:32;;;;;;;33.07;19.97;;;;;;;;;;4971853;28;20192;-78
2023/01/03 04:44:00;;;;;;;29.80;20.57;;;;;;;;;;4970755;28;20610;-78
2023/01/03 04:46:26;;;;;;;39.83;21.47;;;;;;;;;;4979263;28;20238;-78
2023/01/03 04:48:52;;;;;;;30.70;19.93;;;;;;;;;;4976535;28;20200;-78
2023/01/03 04:51:17;;;;;;;34.00;20.17;;;;;;;;;;4974072;28;20187;-79
2023/01/03 04:53:42;;;;;;;31.23;19.40;;;;;;;;;;4975674;28;20743;-79
2023/01/03 04:56:07;;;;;;;31.57;20.27;;;;;;;;;;4971096;28;20288;-78
2023/01/03 04:58:32;;;;;;;32.87;21.63;;;;;;;;;;4972828;28;20599;-78
2023/01/03 05:00:58;;;;;;;30.47;18.40;;;;;;;;;;4980117;28;20239;-79
2023/01/03 05:03:23;;;;;;;28.80;19.53;;;;;;;;;;4972908;28;20187;-78
2023/01/03 05:05:49;;;;;;;29.53;19.17;;;;;;;;;;4972985;28;20202;-79
2023/01/03 05:08:14;;;;;;;33.70;20.57;;;;;;;;;;4971702;28;20214;-79
2023/01/03 05:10:39;;;;;;;29.97;19.33;;;;;;;;;;4971537;28;20184;-79
2023/01/03 05:13:05;;;;;;;31.27;19.80;;;;;;;;;;4969762;28;20266;-78
2023/01/03 05:15:31;;;;;;;34.60;19.70;;;;;;;;;;4972783;28;20181;-78
2023/01/03 05:17:56;;;;;;;38.03;21.10;;;;;;;;;;4969119;28;20204;-78
2023/01/03 05:25:50;;;;;;;30.67;17.77;;;;;;;;;;4972456;28;20231;-78
2023/01/03 05:28:17;;;;;;;27.80;16.63;;;;;;;;;;4972150;28;20207;-78
2023/01/03 05:30:42;;;;;;;27.07;17.93;;;;;;;;;;4983269;28;20650;-79
2023/01/03 05:33:07;;;;;;;26.97;18.47;;;;;;;;;;4978533;28;20249;-79
2023/01/03 05:35:32;;;;;;;33.67;20.10;;;;;;;;;;4970777;28;20234;-78
2023/01/03 05:37:57;;;;;;;31.27;19.30;;;;;;;;;;4973141;28;20673;-79
2023/01/03 05:40:23;;;;;;;30.07;19.43;;;;;;;;;;4981764;28;20188;-80
2023/01/03 05:42:48;;;;;;;27.90;17.80;;;;;;;;;;4974229;28;20280;-79
2023/01/03 05:45:13;;;;;;;32.67;18.93;;;;;;;;;;4964673;28;20181;-78
2023/01/03 05:47:38;;;;;;;28.90;18.37;;;;;;;;;;4969196;28;20218;-77
2023/01/03 05:50:04;;;;;;;32.60;19.40;;;;;;;;;;4967096;28;20186;-77
2023/01/03 05:52:29;;;;;;;25.47;16.83;;;;;;;;;;4970876;28;20211;-78
2023/01/03 05:54:54;;;;;;;32.07;19.27;;;;;;;;;;4970128;28;20251;-78
2023/01/03 05:57:19;;;;;;;29.87;17.67;;;;;;;;;;4973689;28;20602;-78
2023/01/03 05:59:44;;;;;;;32.10;19.00;;;;;;;;;;4979297;28;20191;-78
2023/01/03 06:02:10;;;;;;;31.67;19.20;;;;;;;;;;4976139;28;20222;-78
2023/01/03 06:04:35;;;;;;;29.57;18.03;;;;;;;;;;4985987;28;20263;-78
2023/01/03 06:07:00;;;;;;;30.43;18.03;;;;;;;;;;4985356;28;20207;-78
2023/01/03 06:09:25;;;;;;;29.93;17.97;;;;;;;;;;4993677;28;20183;-78
2023/01/03 06:11:50;;;;;;;30.77;18.20;;;;;;;;;;4985780;28;20180;-79
2023/01/03 06:14:16;;;;;;;33.07;19.60;;;;;;;;;;4985566;28;20529;-78
2023/01/03 06:19:25;;;;;;;30.83;18.57;;;;;;;;;;4988216;28;20214;-78
2023/01/03 06:21:50;;;;;;;33.10;19.37;;;;;;;;;;4978821;28;20172;-78
2023/01/03 06:24:15;;;;;;;33.37;18.50;;;;;;;;;;4982395;28;20177;-78
2023/01/03 06:26:40;;;;;;;39.57;18.83;;;;;;;;;;4976502;28;20200;-79
2023/01/03 06:29:06;;;;;;;31.43;17.73;;;;;;;;;;4984617;28;20184;-78
2023/01/03 06:31:31;;;;;;;31.93;18.73;;;;;;;;;;4986510;28;20219;-78
2023/01/03 06:33:56;;;;;;;33.40;19.27;;;;;;;;;;4986621;28;20200;-79
2023/01/03 06:36:22;;;;;;;27.83;18.90;;;;;;;;;;4982655;28;20200;-77
2023/01/03 06:38:48;;;;;;;31.60;19.60;;;;;;;;;;4983496;28;20196;-78
2023/01/03 06:41:14;;;;;;;37.30;19.80;;;;;;;;;;4976066;28;20542;-79
2023/01/03 06:43:40;;;;;;;34.67;18.93;;;;;;;;;;4985585;28;20542;-78
2023/01/03 06:54:18;;;;;;;43.20;22.90;;;;;;;;;;4975520;28;20187;-79
2023/01/03 06:56:43;;;;;;;36.23;19.30;;;;;;;;;;4971842;28;20685;-79
2023/01/03 06:59:09;;;;;;;31.90;18.20;;;;;;;;;;4975344;28;20172;-79
2023/01/03 07:01:34;;;;;;;32.77;18.47;;;;;;;;;;4972852;28;20190;-79
2023/01/03 07:04:00;;;;;;;36.47;19.23;;;;;;;;;;4980344;28;20562;-79
2023/01/03 07:06:26;;;;;;;33.97;19.73;;;;;;;;;;4978662;28;20208;-80
2023/01/03 07:08:52;;;;;;;37.90;19.70;;;;;;;;;;4969778;28;22619;-80
2023/01/03 07:11:17;;;;;;;30.70;17.73;;;;;;;;;;4996080;28;20254;-78
2023/01/03 07:13:57;;;;;;;29.40;16.37;;;;;;;;;;4986399;28;20283;-78
2023/01/03 07:16:23;;;;;;;34.13;16.83;;;;;;;;;;4978252;28;20673;-79
2023/01/03 07:18:49;;;;;;;28.30;16.93;;;;;;;;;;4980674;28;20308;-79
2023/01/03 07:21:14;;;;;;;28.13;15.63;;;;;;;;;;4983440;28;20324;-79
2023/01/03 07:23:39;;;;;;;30.63;15.47;;;;;;;;;;4993892;28;20220;-79
2023/01/03 07:26:05;;;;;;;29.10;15.40;;;;;;;;;;4986314;28;20642;-79
2023/01/03 07:28:30;;;;;;;27.17;15.87;;;;;;;;;;4988053;28;20171;-79
2023/01/03 07:31:02;;;;;;;24.83;15.87;;;;;;;;;;4959910;28;20279;-79
2023/01/03 07:33:28;;;;;;;23.80;14.83;;;;;;;;;;4970560;28;20211;-79
2023/01/03 07:36:00;;;;;;;27.33;15.23;;;;;;;;;;4990113;28;20208;-80
2023/01/03 07:38:25;;;;;;;26.13;14.80;;;;;;;;;;4983217;28;20216;-80
2023/01/03 07:40:50;;;;;;;26.80;14.70;;;;;;;;;;4989835;28;20195;-80
2023/01/03 07:46:03;;;;;;;25.70;13.67;;;;;;;;;;4981900;28;20238;-80
2023/01/03 07:48:28;;;;;;;24.03;14.40;;;;;;;;;;4979424;28;20658;-80
2023/01/03 07:50:57;;;;;;;26.80;13.70;;;;;;;;;;4987128;28;20178;-80
2023/01/03 07:53:22;;;;;;;21.73;13.90;;;;;;;;;;4987379;28;20201;-80
2023/01/03 07:55:47;;;;;;;23.27;13.80;;;;;;;;;;4986583;28;20267;-80
2023/01/03 07:58:13;;;;;;;21.80;12.90;;;;;;;;;;4981701;28;20220;-79
2023/01/03 08:00:38;;;;;;;23.10;13.10;;;;;;;;;;4975188;28;20211;-79
2023/01/03 08:03:04;;;;;;;23.67;13.70;;;;;;;;;;4984448;28;20186;-79
2023/01/03 08:05:29;;;;;;;28.57;14.33;;;;;;;;;;4985624;28;20182;-79
2023/01/03 08:07:54;;;;;;;22.70;14.17;;;;;;;;;;4981596;28;20205;-79
2023/01/03 08:13:18;;;;;;;24.03;14.10;;;;;;;;;;4986992;28;20238;-79
2023/01/03 08:15:48;;;;;;;24.87;13.23;;;;;;;;;;4987199;28;20271;-79
2023/01/03 08:18:14;;;;;;;23.43;14.73;;;;;;;;;;4974797;28;20199;-79
2023/01/03 08:20:40;;;;;;;23.87;14.37;;;;;;;;;;4981940;28;20259;-79
2023/01/03 08:23:05;;;;;;;22.47;14.10;;;;;;;;;;4982865;28;20636;-79
2023/01/03 08:25:30;;;;;;;29.03;13.27;;;;;;;;;;4972057;28;20196;-79
2023/01/03 08:27:57;;;;;;;25.97;14.67;;;;;;;;;;4974307;28;20223;-79
2023/01/03 08:30:22;;;;;;;27.10;14.87;;;;;;;;;;4982536;28;20176;-79
2023/01/03 08:32:47;;;;;;;25.83;14.40;;;;;;;;;;4977008;28;20191;-79
2023/01/03 08:35:14;;;;;;;26.43;16.87;;;;;;;;;;4984267;28;20175;-79
2023/01/03 08:37:40;;;;;;;28.90;13.57;;;;;;;;;;4985969;28;20188;-78
2023/01/03 08:40:05;;;;;;;25.30;13.60;;;;;;;;;;4975846;28;20680;-78
2023/01/03 08:42:31;;;;;;;23.50;14.70;;;;;;;;;;4973824;28;20191;-78
2023/01/03 08:45:01;;;;;;;24.03;13.20;;;;;;;;;;4979970;28;20652;-79
2023/01/03 08:47:27;;;;;;;24.23;13.50;;;;;;;;;;4981071;28;20556;-79
2023/01/03 08:49:53;;;;;;;25.87;15.20;;;;;;;;;;4979076;28;20188;-78
2023/01/03 08:52:18;;;;;;;23.37;14.03;;;;;;;;;;4979123;28;20295;-78
2023/01/03 08:54:44;;;;;;;26.47;16.03;;;;;;;;;;4987467;28;20240;-78
2023/01/03 08:57:09;;;;;;;28.47;14.80;;;;;;;;;;4978102;28;20208;-78
2023/01/03 08:59:34;;;;;;;27.57;15.80;;;;;;;;;;4975792;28;20172;-78
2023/01/03 09:01:59;;;;;;;34.07;17.40;;;;;;;;;;4984753;28;20172;-78
2023/01/03 09:04:25;;;;;;;31.37;16.13;;;;;;;;;;4992518;28;20339;-78
2023/01/03 09:06:50;;;;;;;30.87;17.20;;;;;;;;;;4988276;28;20187;-78
2023/01/03 09:09:15;;;;;;;37.37;17.73;;;;;;;;;;4985459;28;20183;-78
2023/01/03 09:11:40;;;;;;;31.50;16.73;;;;;;;;;;4975170;28;20181;-78
2023/01/03 09:14:06;;;;;;;35.83;17.27;;;;;;;;;;4985274;28;20200;-78
2023/01/03 09:16:31;;;;;;;35.37;18.53;;;;;;;;;;4981367;28;20207;-78
2023/01/03 09:18:56;;;;;;;45.07;19.10;;;;;;;;;;4986181;28;20179;-78
2023/01/03 09:21:21;;;;;;;43.67;20.30;;;;;;;;;;4974468;28;20168;-78
2023/01/03 09:23:47;;;;;;;43.60;20.73;;;;;;;;;;4986467;28;20240;-79
2023/01/03 09:26:12;;;;;;;38.93;18.57;;;;;;;;;;4978569;28;20189;-80
2023/01/03 09:28:37;;;;;;;37.47;19.63;;;;;;;;;;4970348;28;20192;-79
2023/01/03 09:31:03;;;;;;;41.53;21.60;;;;;;;;;;4968478;28;20184;-79
2023/01/03 09:33:28;;;;;;;43.17;21.10;;;;;;;;;;4981322;28;20211;-79
2023/01/03 09:35:53;;;;;;;40.87;20.03;;;;;;;;;;4976229;28;20208;-79
2023/01/03 09:38:19;;;;;;;47.00;21.73;;;;;;;;;;4974027;28;20208;-79
2023/01/03 09:40:45;;;;;;;46.53;20.50;;;;;;;;;;4972911;28;20180;-79
2023/01/03 09:43:15;;;;;;;52.37;22.17;;;;;;;;;;4986863;28;20206;-79
2023/01/03 09:45:44;;;;;;;42.67;21.50;;;;;;;;;;4979130;28;20560;-79
2023/01/03 09:48:13;;;;;;;47.83;22.23;;;;;;;;;;4979501;28;20200;-79
2023/01/03 09:50:38;;;;;;;48.00;22.13;;;;;;;;;;4971270;28;20196;-79
2023/01/03 10:04:24;;;;;;;44.60;22.13;;;;;;;;;;4981904;28;20259;-78
2023/01/03 10:06:58;;;;;;;46.60;20.67;;;;;;;;;;4973858;28;20234;-78
2023/01/03 10:09:31;;;;;;;42.90;22.87;;;;;;;;;;4976306;28;20184;-78
2023/01/03 10:12:08;;;;;;;45.37;20.13;;;;;;;;;;4978121;28;20279;-77
2023/01/03 10:14:49;;;;;;;42.37;19.77;;;;;;;;;;4971578;28;20233;-78
2023/01/03 10:17:21;;;;;;;40.20;20.43;;;;;;;;;;4964726;28;20228;-78
2023/01/03 10:19:52;;;;;;;41.97;19.63;;;;;;;;;;4975107;28;20173;-78
2023/01/03 10:22:21;;;;;;;41.07;20.90;;;;;;;;;;4975369;28;20204;-78
2023/01/03 10:24:58;;;;;;;37.33;20.13;;;;;;;;;;4963155;28;22062;-78
2023/01/03 10:27:25;;;;;;;50.87;20.47;;;;;;;;;;4973799;28;20211;-78
2023/01/03 10:29:52;;;;;;;44.60;21.47;;;;;;;;;;4977121;28;20177;-78
2023/01/03 10:32:18;;;;;;;43.70;20.10;;;;;;;;;;4971772;28;20209;-78
2023/01/03 10:34:43;;;;;;;44.90;20.00;;;;;;;;;;4975467;28;20173;-78
2023/01/03 10:37:18;;;;;;;39.47;20.20;;;;;;;;;;4982890;28;20196;-77
2023/01/03 10:39:43;;;;;;;46.33;20.17;;;;;;;;;;4974230;28;20175;-79
2023/01/03 10:42:13;;;;;;;44.13;21.20;;;;;;;;;;4982190;28;20263;-79
2023/01/03 10:44:38;;;;;;;43.73;21.70;;;;;;;;;;4968009;28;20541;-77
2023/01/03 10:47:14;;;;;;;45.27;21.77;;;;;;;;;;4974964;28;20247;-78
2023/01/03 10:49:43;;;;;;;47.37;20.67;;;;;;;;;;4977093;28;20602;-77
2023/01/03 10:52:10;;;;;;;44.80;22.13;;;;;;;;;;4978360;28;20183;-78
2023/01/03 10:54:42;;;;;;;37.03;20.17;;;;;;;;;;4988365;28;20588;-78
2023/01/03 10:57:27;;;;;;;41.17;20.90;;;;;;;;;;4970059;28;20213;-77
2023/01/03 10:59:52;;;;;;;40.53;20.60;;;;;;;;;;4967870;28;20181;-77
2023/01/03 11:02:17;;;;;;;35.77;19.13;;;;;;;;;;4969196;28;20191;-77
2023/01/03 11:04:43;;;;;;;38.57;18.67;;;;;;;;;;4978723;28;20219;-77
2023/01/03 11:07:10;;;;;;;43.23;18.23;;;;;;;;;;4967059;28;20243;-77
2023/01/03 11:09:45;;;;;;;41.90;18.70;;;;;;;;;;4971859;28;20188;-77
2023/01/03 11:12:16;;;;;;;33.67;17.23;;;;;;;;;;4971207;28;20184;-78
2023/01/03 11:14:51;;;;;;;33.20;17.03;;;;;;;;;;4972217;28;20191;-77
2023/01/03 11:17:17;;;;;;;28.17;16.87;;;;;;;;;;4972667;28;20294;-77
2023/01/03 11:19:42;;;;;;;31.00;17.23;;;;;;;;;;4972147;28;20180;-77
2023/01/03 11:22:32;;;;;;;32.17;15.43;;;;;;;;;;4973252;28;20233;-77
2023/01/03 11:24:57;;;;;;;29.57;16.17;;;;;;;;;;4978076;28;20182;-77
2023/01/03 11:27:22;;;;;;;27.37;16.63;;;;;;;;;;4967845;28;20291;-77
2023/01/03 11:29:54;;;;;;;27.57;16.17;;;;;;;;;;4979158;28;20593;-78
2023/01/03 11:32:31;;;;;;;28.93;16.90;;;;;;;;;;4961033;28;20211;-76
2023/01/03 11:35:23;;;;;;;31.37;17.53;;;;;;;;;;4972711;28;20618;-79
2023/01/03 11:38:03;;;;;;;29.73;16.90;;;;;;;;;;4973163;28;20283;-79
2023/01/03 11:40:28;;;;;;;32.63;16.87;;;;;;;;;;4974911;28;20259;-78
2023/01/03 11:42:56;;;;;;;27.00;17.00;;;;;;;;;;4984112;28;20275;-78
2023/01/03 11:45:30;;;;;;;31.33;18.10;;;;;;;;;;4972499;28;20540;-78
2023/01/03 11:48:14;;;;;;;31.23;17.47;;;;;;;;;;4976124;28;20212;-78
2023/01/03 11:50:53;;;;;;;33.03;18.23;;;;;;;;;;4972390;28;20172;-78
2023/01/03 11:53:27;;;;;;;31.10;17.37;;;;;;;;;;4961001;28;20681;-78
2023/01/03 11:56:05;;;;;;;27.50;17.60;;;;;;;;;;4962063;28;20180;-76
2023/01/03 11:58:31;;;;;;;32.87;17.50;;;;;;;;;;4969829;28;20191;-77
2023/01/03 12:00:59;;;;;;;28.23;16.60;;;;;;;;;;4963959;28;20185;-76
2023/01/03 12:03:24;;;;;;;27.77;15.87;;;;;;;;;;4972564;28;20177;-76
2023/01/03 12:06:04;;;;;;;27.13;16.80;;;;;;;;;;4977781;28;20186;-76
2023/01/03 12:08:32;;;;;;;21.87;15.50;;;;;;;;;;4982037;28;20547;-77
2023/01/03 12:11:02;;;;;;;24.70;15.80;;;;;;;;;;4974727;28;20181;-76
2023/01/03 12:13:30;;;;;;;24.80;15.63;;;;;;;;;;4972398;28;20214;-77
2023/01/03 12:16:04;;;;;;;23.03;14.20;;;;;;;;;;4972219;28;20649;-77
2023/01/03 12:18:30;;;;;;;23.93;15.23;;;;;;;;;;4975727;28;20708;-77
2023/01/03 12:20:57;;;;;;;22.57;13.87;;;;;;;;;;4971924;28;20297;-77
2023/01/03 12:23:29;;;;;;;22.03;14.40;;;;;;;;;;4979303;28;20223;-77
2023/01/03 12:25:56;;;;;;;23.13;14.60;;;;;;;;;;4956255;28;20203;-77
2023/01/03 12:28:24;;;;;;;19.70;12.60;;;;;;;;;;4973551;28;20188;-77
2023/01/03 12:30:54;;;;;;;21.77;13.27;;;;;;;;;;4972758;28;20275;-77
2023/01/03 12:33:24;;;;;;;18.47;12.43;;;;;;;;;;4972025;28;20204;-77
2023/01/03 12:35:53;;;;;;;17.03;11.67;;;;;;;;;;4972090;28;20682;-78
2023/01/03 12:38:23;;;;;;;15.53;11.07;;;;;;;;;;4968006;28;20685;-77
2023/01/03 12:40:48;;;;;;;15.53;9.53;;;;;;;;;;4976056;28;20185;-77
2023/01/03 12:43:25;;;;;;;14.40;10.73;;;;;;;;;;4970341;28;20560;-77
2023/01/03 12:45:53;;;;;;;13.23;9.73;;;;;;;;;;4977293;28;20210;-77
2023/01/03 12:48:37;;;;;;;13.17;8.57;;;;;;;;;;4968337;28;20689;-77
2023/01/03 12:51:02;;;;;;;15.63;10.27;;;;;;;;;;4969708;28;20176;-77
2023/01/03 12:53:31;;;;;;;15.27;7.30;;;;;;;;;;4967878;28;20210;-77
2023/01/03 12:55:59;;;;;;;12.83;7.77;;;;;;;;;;4972293;28;20176;-77
2023/01/03 12:58:56;;;;;;;10.57;7.80;;;;;;;;;;4972659;28;20176;-77
2023/01/03 13:01:21;;;;;;;9.63;6.07;;;;;;;;;;4943252;28;20192;-77
2023/01/03 13:03:48;;;;;;;8.90;5.78;;;;;;;;;;4967330;28;20188;-77
2023/01/03 13:06:29;;;;;;;8.63;6.70;;;;;;;;;;4970015;28;20187;-77
2023/01/03 13:08:57;;;;;;;11.63;6.43;;;;;;;;;;4976360;28;20618;-77
2023/01/03 13:11:25;;;;;;;9.93;6.10;;;;;;;;;;4971607;28;20267;-76
2023/01/03 13:13:54;;;;;;;12.03;6.43;;;;;;;;;;4972052;28;20203;-77
2023/01/03 13:16:34;;;;;;;10.83;7.10;;;;;;;;;;4970823;28;20205;-77
2023/01/03 13:19:18;;;;;;;12.97;6.57;;;;;;;;;;4973135;28;20622;-77
2023/01/03 13:21:52;;;;;;;6.63;5.50;;;;;;;;;;4967758;28;20596;-77
2023/01/03 13:24:44;;;;;;;10.83;5.50;;;;;;;;;;4969603;28;20263;-77
2023/01/03 13:27:16;;;;;;;14.80;6.87;;;;;;;;;;4960603;28;20310;-77
2023/01/03 13:29:42;;;;;;;9.80;5.90;;;;;;;;;;4971278;28;20186;-77
2023/01/03 13:32:20;;;;;;;6.00;5.03;;;;;;;;;;4964895;28;20212;-76
2023/01/03 13:34:57;;;;;;;10.40;5.90;;;;;;;;;;4963848;28;20183;-77
2023/01/03 13:37:22;;;;;;;8.07;5.73;;;;;;;;;;4977582;28;20204;-77
2023/01/03 13:39:51;;;;;;;8.77;5.67;;;;;;;;;;4967602;28;20179;-76
2023/01/03 13:42:21;;;;;;;11.80;5.90;;;;;;;;;;4979841;28;20188;-77
2023/01/03 13:44:46;;;;;;;8.43;5.93;;;;;;;;;;4972032;28;20187;-76
2023/01/03 13:47:29;;;;;;;9.23;5.70;;;;;;;;;;4970064;28;20567;-77
2023/01/03 13:49:54;;;;;;;10.93;6.80;;;;;;;;;;4970900;28;20247;-76
2023/01/03 13:52:39;;;;;;;7.70;5.60;;;;;;;;;;4981094;28;20181;-76
2023/01/03 13:55:25;;;;;;;8.17;5.43;;;;;;;;;;4962572;28;20208;-76
2023/01/03 13:57:51;;;;;;;8.00;5.30;;;;;;;;;;4968730;28;20298;-76
2023/01/03 14:00:18;;;;;;;10.93;6.97;;;;;;;;;;4970947;28;20180;-76
2023/01/03 14:03:00;;;;;;;6.63;5.87;;;;;;;;;;4968661;28;20311;-77
2023/01/03 14:05:25;;;;;;;8.53;5.70;;;;;;;;;;4961151;28;20194;-76
2023/01/03 14:08:04;;;;;;;10.30;5.43;;;;;;;;;;4970704;28;20201;-77
2023/01/03 14:10:48;;;;;;;11.97;6.67;;;;;;;;;;4973981;28;20330;-76
2023/01/03 14:13:16;;;;;;;10.37;5.77;;;;;;;;;;4965827;28;20200;-76
2023/01/03 14:15:41;;;;;;;8.30;5.20;;;;;;;;;;4962905;28;20231;-76
2023/01/03 14:18:23;;;;;;;9.17;6.10;;;;;;;;;;4981098;28;20211;-77
2023/01/03 14:20:50;;;;;;;11.50;6.40;;;;;;;;;;4970007;28;20180;-77
2023/01/03 14:23:16;;;;;;;7.60;5.67;;;;;;;;;;4981057;28;20192;-77
2023/01/03 14:25:42;;;;;;;10.00;5.97;;;;;;;;;;4973105;28;20180;-77
2023/01/03 14:28:24;;;;;;;5.57;5.00;;;;;;;;;;4972837;28;20677;-77
2023/01/03 14:30:58;;;;;;;6.97;5.13;;;;;;;;;;4972568;28;20188;-76
2023/01/03 14:33:28;;;;;;;7.23;4.87;;;;;;;;;;4981064;28;20199;-76
2023/01/03 14:36:01;;;;;;;11.57;5.87;;;;;;;;;;4971290;28;20263;-77
2023/01/03 14:38:28;;;;;;;10.13;4.70;;;;;;;;;;4979323;28;20322;-77
2023/01/03 14:40:55;;;;;;;9.67;6.37;;;;;;;;;;4967991;28;20180;-77
2023/01/03 14:43:21;;;;;;;7.33;4.10;;;;;;;;;;4973989;28;20240;-77
2023/01/03 14:45:53;;;;;;;9.43;4.87;;;;;;;;;;4972137;28;20204;-77
2023/01/03 14:48:18;;;;;;;7.60;4.70;;;;;;;;;;4968754;28;20196;-77
2023/01/03 14:50:43;;;;;;;11.97;5.53;;;;;;;;;;4970703;28;20196;-77
2023/01/03 14:53:09;;;;;;;12.73;4.80;;;;;;;;;;4973593;28;20564;-77
2023/01/03 14:55:35;;;;;;;8.20;4.50;;;;;;;;;;4985723;28;20187;-77
2023/01/03 14:58:16;;;;;;;6.47;5.33;;;;;;;;;;4974665;28;20303;-77
2023/01/03 15:00:42;;;;;;;7.70;4.40;;;;;;;;;;4960950;28;20184;-77
2023/01/03 15:03:08;;;;;;;6.87;4.27;;;;;;;;;;4979944;28;20188;-77
2023/01/03 15:05:38;;;;;;;6.07;4.00;;;;;;;;;;4972251;28;20187;-77
2023/01/03 15:08:19;;;;;;;7.97;4.47;;;;;;;;;;4964346;28;20232;-77
2023/01/03 15:10:48;;;;;;;8.33;4.20;;;;;;;;;;4967702;28;20184;-77
2023/01/03 15:13:18;;;;;;;5.47;3.70;;;;;;;;;;4982278;28;20685;-78
2023/01/03 15:15:44;;;;;;;10.23;4.10;;;;;;;;;;4980062;28;20184;-77
2023/01/03 15:18:10;;;;;;;8.17;4.13;;;;;;;;;;4975731;28;20581;-77
2023/01/03 15:20:37;;;;;;;6.73;3.93;;;;;;;;;;4975881;28;20551;-77